sensor_id;sensor_type;location;lat;lon;timestamp;temperature;humidity
29687;DHT22;16599;47.078;15.536;2023-02-15T00:00:52;0.10;99.90
29687;DHT22;16599;47.078;15.536;2023-02-15T00:03:21;0.10;99.90
29687;DHT22;16599;47.078;15.536;2023-02-15T00:05:48;0.20;99.90
29687;DHT22;16599;47.078;15.536;2023-02-15T00:08:14;0.20;99.90
29687;DHT22;16599;47.078;15.536;2023-02-15T00:10:41;0.20;99.90
29687;DHT22;16599;47.078;15.536;2023-02-15T00:13:07;0.20;99.90
29687;DHT22;16599;47.078;15.536;2023-02-15T00:15:34;0.20;99.90
29687;DHT22;16599;47.078;15.536;2023-02-15T00:18:01;0.20;99.90
29687;DHT22;16599;47.078;15.536;2023-02-15T00:20:27;0.20;99.90
29687;DHT22;16599;47.078;15.536;2023-02-15T00:22:54;0.20;99.90
29687;DHT22;16599;47.078;15.536;2023-02-15T00:25:21;0.30;99.90
29687;DHT22;16599;47.078;15.536;2023-02-15T00:27:47;0.30;99.90
29687;DHT22;16599;47.078;15.536;2023-02-15T00:30:14;0.40;99.90
29687;DHT22;16599;47.078;15.536;2023-02-15T00:32:41;0.30;99.90
29687;DHT22;16599;47.078;15.536;2023-02-15T00:35:08;0.40;99.90
29687;DHT22;16599;47.078;15.536;2023-02-15T00:37:35;0.40;99.90
29687;DHT22;16599;47.078;15.536;2023-02-15T00:40:02;0.30;99.90
29687;DHT22;16599;47.078;15.536;2023-02-15T00:42:29;0.40;99.90
29687;DHT22;16599;47.078;15.536;2023-02-15T00:44:55;0.40;99.90
29687;DHT22;16599;47.078;15.536;2023-02-15T00:47:22;0.40;99.90
29687;DHT22;16599;47.078;15.536;2023-02-15T00:49:50;0.30;99.90
29687;DHT22;16599;47.078;15.536;2023-02-15T00:52:17;0.50;99.90
29687;DHT22;16599;47.078;15.536;2023-02-15T00:54:44;0.40;99.90
29687;DHT22;16599;47.078;15.536;2023-02-15T00:57:11;0.70;99.90
29687;DHT22;16599;47.078;15.536;2023-02-15T00:59:37;0.60;99.90
29687;DHT22;16599;47.078;15.536;2023-02-15T01:02:04;0.50;99.90
29687;DHT22;16599;47.078;15.536;2023-02-15T01:04:31;0.50;99.90
29687;DHT22;16599;47.078;15.536;2023-02-15T01:06:58;0.50;99.90
29687;DHT22;16599;47.078;15.536;2023-02-15T01:09:24;0.50;99.90
29687;DHT22;16599;47.078;15.536;2023-02-15T01:11:51;0.50;99.90
29687;DHT22;16599;47.078;15.536;2023-02-15T01:14:18;0.50;99.90
29687;DHT22;16599;47.078;15.536;2023-02-15T01:16:45;0.50;99.90
29687;DHT22;16599;47.078;15.536;2023-02-15T01:19:12;0.60;99.90
29687;DHT22;16599;47.078;15.536;2023-02-15T01:21:39;0.70;99.90
29687;DHT22;16599;47.078;15.536;2023-02-15T01:24:11;0.60;99.90
29687;DHT22;16599;47.078;15.536;2023-02-15T01:26:38;0.70;99.90
29687;DHT22;16599;47.078;15.536;2023-02-15T01:29:04;0.60;99.90
29687;DHT22;16599;47.078;15.536;2023-02-15T01:31:31;0.50;99.90
29687;DHT22;16599;47.078;15.536;2023-02-15T01:33:58;0.50;99.90
29687;DHT22;16599;47.078;15.536;2023-02-15T01:36:25;0.50;99.90
29687;DHT22;16599;47.078;15.536;2023-02-15T01:38:51;0.60;99.90
29687;DHT22;16599;47.078;15.536;2023-02-15T01:41:18;0.60;99.90
29687;DHT22;16599;47.078;15.536;2023-02-15T01:43:59;0.70;99.90
29687;DHT22;16599;47.078;15.536;2023-02-15T01:46:28;0.60;99.90
29687;DHT22;16599;47.078;15.536;2023-02-15T01:49:16;0.70;99.90
29687;DHT22;16599;47.078;15.536;2023-02-15T01:51:44;0.80;99.90
29687;DHT22;16599;47.078;15.536;2023-02-15T01:54:17;0.70;99.90
29687;DHT22;16599;47.078;15.536;2023-02-15T01:56:45;0.60;99.90
29687;DHT22;16599;47.078;15.536;2023-02-15T01:59:14;0.60;99.90
29687;DHT22;16599;47.078;15.536;2023-02-15T02:01:43;0.70;99.90
29687;DHT22;16599;47.078;15.536;2023-02-15T02:04:17;0.70;99.90
29687;DHT22;16599;47.078;15.536;2023-02-15T02:06:46;0.70;99.90
29687;DHT22;16599;47.078;15.536;2023-02-15T02:09:14;0.60;99.90
29687;DHT22;16599;47.078;15.536;2023-02-15T02:11:41;0.60;99.90
29687;DHT22;16599;47.078;15.536;2023-02-15T02:14:09;0.60;99.90
29687;DHT22;16599;47.078;15.536;2023-02-15T02:22:02;0.70;99.90
29687;DHT22;16599;47.078;15.536;2023-02-15T02:35:30;0.80;99.90
29687;DHT22;16599;47.078;15.536;2023-02-15T02:42:35;0.90;99.90
29687;DHT22;16599;47.078;15.536;2023-02-15T02:49:59;1.00;99.90
29687;DHT22;16599;47.078;15.536;2023-02-15T02:55:13;0.90;99.90
29687;DHT22;16599;47.078;15.536;2023-02-15T02:57:47;1.00;99.90
29687;DHT22;16599;47.078;15.536;2023-02-15T03:00:17;1.00;99.90
29687;DHT22;16599;47.078;15.536;2023-02-15T03:02:44;1.00;99.90
29687;DHT22;16599;47.078;15.536;2023-02-15T03:05:13;1.00;99.90
29687;DHT22;16599;47.078;15.536;2023-02-15T03:07:41;0.90;99.90
29687;DHT22;16599;47.078;15.536;2023-02-15T03:10:08;0.90;99.90
29687;DHT22;16599;47.078;15.536;2023-02-15T03:12:36;0.90;99.90
29687;DHT22;16599;47.078;15.536;2023-02-15T03:15:05;1.00;99.90
29687;DHT22;16599;47.078;15.536;2023-02-15T03:17:33;1.00;99.90
29687;DHT22;16599;47.078;15.536;2023-02-15T03:20:03;1.10;99.90
29687;DHT22;16599;47.078;15.536;2023-02-15T03:22:33;1.10;99.90
29687;DHT22;16599;47.078;15.536;2023-02-15T03:25:04;1.10;99.90
29687;DHT22;16599;47.078;15.536;2023-02-15T03:27:35;1.10;99.90
29687;DHT22;16599;47.078;15.536;2023-02-15T03:30:02;1.10;99.90
29687;DHT22;16599;47.078;15.536;2023-02-15T03:32:30;1.00;99.90
29687;DHT22;16599;47.078;15.536;2023-02-15T03:34:58;0.90;99.90
29687;DHT22;16599;47.078;15.536;2023-02-15T03:37:31;1.00;99.90
29687;DHT22;16599;47.078;15.536;2023-02-15T03:40:00;1.00;99.90
29687;DHT22;16599;47.078;15.536;2023-02-15T03:42:54;1.00;99.90
29687;DHT22;16599;47.078;15.536;2023-02-15T03:45:23;1.10;99.90
29687;DHT22;16599;47.078;15.536;2023-02-15T03:47:51;1.00;99.90
29687;DHT22;16599;47.078;15.536;2023-02-15T03:50:20;1.00;99.90
29687;DHT22;16599;47.078;15.536;2023-02-15T03:53:07;0.90;99.90
29687;DHT22;16599;47.078;15.536;2023-02-15T03:55:35;0.90;99.90
29687;DHT22;16599;47.078;15.536;2023-02-15T03:58:02;1.00;99.90
29687;DHT22;16599;47.078;15.536;2023-02-15T04:00:49;1.20;99.90
29687;DHT22;16599;47.078;15.536;2023-02-15T04:03:37;1.10;99.90
29687;DHT22;16599;47.078;15.536;2023-02-15T04:06:05;1.10;99.90
29687;DHT22;16599;47.078;15.536;2023-02-15T04:08:32;1.10;99.90
29687;DHT22;16599;47.078;15.536;2023-02-15T04:11:18;1.00;99.90
29687;DHT22;16599;47.078;15.536;2023-02-15T04:13:44;1.20;99.90
29687;DHT22;16599;47.078;15.536;2023-02-15T04:16:11;1.10;99.90
29687;DHT22;16599;47.078;15.536;2023-02-15T04:18:39;1.20;99.90
29687;DHT22;16599;47.078;15.536;2023-02-15T04:21:25;1.10;99.90
29687;DHT22;16599;47.078;15.536;2023-02-15T04:24:10;1.20;99.90
29687;DHT22;16599;47.078;15.536;2023-02-15T04:26:56;1.10;99.90
29687;DHT22;16599;47.078;15.536;2023-02-15T04:29:23;1.20;99.90
29687;DHT22;16599;47.078;15.536;2023-02-15T04:31:50;1.20;99.90
29687;DHT22;16599;47.078;15.536;2023-02-15T04:34:17;1.20;99.90
29687;DHT22;16599;47.078;15.536;2023-02-15T04:36:44;1.40;99.90
29687;DHT22;16599;47.078;15.536;2023-02-15T04:39:14;1.30;99.90
29687;DHT22;16599;47.078;15.536;2023-02-15T04:41:41;1.30;99.90
29687;DHT22;16599;47.078;15.536;2023-02-15T04:44:08;1.30;99.90
29687;DHT22;16599;47.078;15.536;2023-02-15T04:46:37;1.30;99.90
29687;DHT22;16599;47.078;15.536;2023-02-15T04:49:04;1.30;99.90
29687;DHT22;16599;47.078;15.536;2023-02-15T04:51:30;1.30;99.90
29687;DHT22;16599;47.078;15.536;2023-02-15T04:53:57;1.30;99.90
29687;DHT22;16599;47.078;15.536;2023-02-15T04:56:24;1.20;99.90
29687;DHT22;16599;47.078;15.536;2023-02-15T04:58:50;1.40;99.90
29687;DHT22;16599;47.078;15.536;2023-02-15T05:01:17;1.30;99.90
29687;DHT22;16599;47.078;15.536;2023-02-15T05:03:44;1.40;99.90
29687;DHT22;16599;47.078;15.536;2023-02-15T05:06:11;1.30;99.90
29687;DHT22;16599;47.078;15.536;2023-02-15T05:08:37;1.30;99.90
29687;DHT22;16599;47.078;15.536;2023-02-15T05:11:04;1.40;99.90
29687;DHT22;16599;47.078;15.536;2023-02-15T05:13:31;1.40;99.90
29687;DHT22;16599;47.078;15.536;2023-02-15T05:15:57;1.20;99.90
29687;DHT22;16599;47.078;15.536;2023-02-15T05:18:24;1.10;99.90
29687;DHT22;16599;47.078;15.536;2023-02-15T05:20:51;1.20;99.90
29687;DHT22;16599;47.078;15.536;2023-02-15T05:23:18;1.20;99.90
29687;DHT22;16599;47.078;15.536;2023-02-15T05:25:48;1.20;99.90
29687;DHT22;16599;47.078;15.536;2023-02-15T05:28:34;1.20;99.90
29687;DHT22;16599;47.078;15.536;2023-02-15T05:31:05;1.20;99.90
29687;DHT22;16599;47.078;15.536;2023-02-15T05:33:33;1.10;99.90
29687;DHT22;16599;47.078;15.536;2023-02-15T05:36:00;1.10;99.90
29687;DHT22;16599;47.078;15.536;2023-02-15T05:38:28;1.10;99.90
29687;DHT22;16599;47.078;15.536;2023-02-15T05:40:55;1.20;99.90
29687;DHT22;16599;47.078;15.536;2023-02-15T05:43:22;1.20;99.90
29687;DHT22;16599;47.078;15.536;2023-02-15T05:45:50;1.20;99.90
29687;DHT22;16599;47.078;15.536;2023-02-15T05:48:17;1.20;99.90
29687;DHT22;16599;47.078;15.536;2023-02-15T05:50:44;1.20;99.90
29687;DHT22;16599;47.078;15.536;2023-02-15T05:53:11;1.10;99.90
29687;DHT22;16599;47.078;15.536;2023-02-15T05:55:38;1.20;99.90
29687;DHT22;16599;47.078;15.536;2023-02-15T05:58:05;1.30;99.90
29687;DHT22;16599;47.078;15.536;2023-02-15T06:00:32;1.10;99.90
29687;DHT22;16599;47.078;15.536;2023-02-15T06:03:00;1.20;99.90
29687;DHT22;16599;47.078;15.536;2023-02-15T06:05:27;1.20;99.90
29687;DHT22;16599;47.078;15.536;2023-02-15T06:07:54;1.20;99.90
29687;DHT22;16599;47.078;15.536;2023-02-15T06:10:20;1.10;99.90
29687;DHT22;16599;47.078;15.536;2023-02-15T06:12:47;1.00;99.90
29687;DHT22;16599;47.078;15.536;2023-02-15T06:15:14;1.10;99.90
29687;DHT22;16599;47.078;15.536;2023-02-15T06:17:41;1.10;99.90
29687;DHT22;16599;47.078;15.536;2023-02-15T06:20:08;1.10;99.90
29687;DHT22;16599;47.078;15.536;2023-02-15T06:22:35;1.10;99.90
29687;DHT22;16599;47.078;15.536;2023-02-15T06:25:02;1.10;99.90
29687;DHT22;16599;47.078;15.536;2023-02-15T06:27:30;1.10;99.90
29687;DHT22;16599;47.078;15.536;2023-02-15T06:29:56;1.10;99.90
29687;DHT22;16599;47.078;15.536;2023-02-15T06:32:23;1.10;99.90
29687;DHT22;16599;47.078;15.536;2023-02-15T06:34:50;1.10;99.90
29687;DHT22;16599;47.078;15.536;2023-02-15T06:37:17;1.10;99.90
29687;DHT22;16599;47.078;15.536;2023-02-15T06:39:43;1.10;99.90
29687;DHT22;16599;47.078;15.536;2023-02-15T06:42:10;1.20;99.90
29687;DHT22;16599;47.078;15.536;2023-02-15T06:44:37;1.20;99.90
29687;DHT22;16599;47.078;15.536;2023-02-15T06:47:04;1.20;99.90
29687;DHT22;16599;47.078;15.536;2023-02-15T06:49:31;1.20;99.90
29687;DHT22;16599;47.078;15.536;2023-02-15T06:51:57;1.20;99.90
29687;DHT22;16599;47.078;15.536;2023-02-15T06:54:24;1.20;99.90
29687;DHT22;16599;47.078;15.536;2023-02-15T06:56:53;1.30;99.90
29687;DHT22;16599;47.078;15.536;2023-02-15T06:59:22;1.30;99.90
29687;DHT22;16599;47.078;15.536;2023-02-15T07:01:50;1.30;99.90
29687;DHT22;16599;47.078;15.536;2023-02-15T07:04:17;1.20;99.90
29687;DHT22;16599;47.078;15.536;2023-02-15T07:06:43;1.20;99.90
29687;DHT22;16599;47.078;15.536;2023-02-15T07:09:12;1.20;99.90
29687;DHT22;16599;47.078;15.536;2023-02-15T07:11:39;1.20;99.90
29687;DHT22;16599;47.078;15.536;2023-02-15T07:14:24;1.20;99.90
29687;DHT22;16599;47.078;15.536;2023-02-15T07:16:54;1.20;99.90
29687;DHT22;16599;47.078;15.536;2023-02-15T07:19:21;1.20;99.90
29687;DHT22;16599;47.078;15.536;2023-02-15T07:21:48;1.20;99.90
29687;DHT22;16599;47.078;15.536;2023-02-15T07:24:16;1.20;99.90
29687;DHT22;16599;47.078;15.536;2023-02-15T07:26:48;1.20;99.90
29687;DHT22;16599;47.078;15.536;2023-02-15T07:29:15;1.30;99.90
29687;DHT22;16599;47.078;15.536;2023-02-15T07:31:42;1.30;99.90
29687;DHT22;16599;47.078;15.536;2023-02-15T07:34:11;1.40;99.90
29687;DHT22;16599;47.078;15.536;2023-02-15T07:36:38;1.40;99.90
29687;DHT22;16599;47.078;15.536;2023-02-15T07:39:05;1.50;99.90
29687;DHT22;16599;47.078;15.536;2023-02-15T07:41:32;1.50;99.90
29687;DHT22;16599;47.078;15.536;2023-02-15T07:43:58;1.50;99.90
29687;DHT22;16599;47.078;15.536;2023-02-15T07:46:25;1.50;99.90
29687;DHT22;16599;47.078;15.536;2023-02-15T07:48:52;1.60;99.90
29687;DHT22;16599;47.078;15.536;2023-02-15T07:51:19;1.60;99.90
29687;DHT22;16599;47.078;15.536;2023-02-15T07:53:45;1.60;99.90
29687;DHT22;16599;47.078;15.536;2023-02-15T07:56:13;1.60;99.90
29687;DHT22;16599;47.078;15.536;2023-02-15T07:58:40;1.60;99.90
29687;DHT22;16599;47.078;15.536;2023-02-15T08:01:21;1.60;99.90
29687;DHT22;16599;47.078;15.536;2023-02-15T08:03:48;1.60;99.90
29687;DHT22;16599;47.078;15.536;2023-02-15T08:06:15;1.50;99.90
29687;DHT22;16599;47.078;15.536;2023-02-15T08:08:42;1.40;99.90
29687;DHT22;16599;47.078;15.536;2023-02-15T08:14:03;1.50;99.90
29687;DHT22;16599;47.078;15.536;2023-02-15T08:19:02;1.30;99.90
29687;DHT22;16599;47.078;15.536;2023-02-15T08:21:29;1.20;99.90
29687;DHT22;16599;47.078;15.536;2023-02-15T08:23:56;1.30;99.90
29687;DHT22;16599;47.078;15.536;2023-02-15T08:26:23;1.30;99.90
29687;DHT22;16599;47.078;15.536;2023-02-15T08:28:50;1.40;99.90
29687;DHT22;16599;47.078;15.536;2023-02-15T08:31:17;1.30;99.90
29687;DHT22;16599;47.078;15.536;2023-02-15T08:33:45;1.50;99.90
29687;DHT22;16599;47.078;15.536;2023-02-15T08:36:13;1.60;99.90
29687;DHT22;16599;47.078;15.536;2023-02-15T08:38:40;1.60;99.90
29687;DHT22;16599;47.078;15.536;2023-02-15T08:41:20;1.60;99.90
29687;DHT22;16599;47.078;15.536;2023-02-15T08:43:48;1.70;99.90
29687;DHT22;16599;47.078;15.536;2023-02-15T08:46:15;1.70;99.90
29687;DHT22;16599;47.078;15.536;2023-02-15T08:48:42;1.70;99.90
29687;DHT22;16599;47.078;15.536;2023-02-15T08:51:13;1.50;99.90
29687;DHT22;16599;47.078;15.536;2023-02-15T08:53:40;1.50;99.90
29687;DHT22;16599;47.078;15.536;2023-02-15T08:56:08;1.50;99.90
29687;DHT22;16599;47.078;15.536;2023-02-15T08:58:35;1.50;99.90
29687;DHT22;16599;47.078;15.536;2023-02-15T09:01:07;1.50;99.90
29687;DHT22;16599;47.078;15.536;2023-02-15T09:03:34;1.50;99.90
29687;DHT22;16599;47.078;15.536;2023-02-15T09:06:01;1.50;99.90
29687;DHT22;16599;47.078;15.536;2023-02-15T09:08:28;1.40;99.90
29687;DHT22;16599;47.078;15.536;2023-02-15T09:11:03;1.50;99.90
29687;DHT22;16599;47.078;15.536;2023-02-15T09:13:30;1.60;99.90
29687;DHT22;16599;47.078;15.536;2023-02-15T09:16:04;1.70;99.90
29687;DHT22;16599;47.078;15.536;2023-02-15T09:18:32;1.70;99.90
29687;DHT22;16599;47.078;15.536;2023-02-15T09:21:05;1.70;99.90
29687;DHT22;16599;47.078;15.536;2023-02-15T09:23:32;1.80;99.90
29687;DHT22;16599;47.078;15.536;2023-02-15T09:26:06;1.90;99.90
29687;DHT22;16599;47.078;15.536;2023-02-15T09:28:33;2.00;99.90
29687;DHT22;16599;47.078;15.536;2023-02-15T09:33:34;2.10;99.90
29687;DHT22;16599;47.078;15.536;2023-02-15T09:36:01;2.10;99.90
29687;DHT22;16599;47.078;15.536;2023-02-15T09:38:28;1.90;99.90
29687;DHT22;16599;47.078;15.536;2023-02-15T09:41:07;1.90;99.90
29687;DHT22;16599;47.078;15.536;2023-02-15T09:56:24;2.40;99.90
29687;DHT22;16599;47.078;15.536;2023-02-15T09:59:14;2.50;99.90
29687;DHT22;16599;47.078;15.536;2023-02-15T10:01:49;2.30;99.90
29687;DHT22;16599;47.078;15.536;2023-02-15T10:04:22;2.30;99.90
29687;DHT22;16599;47.078;15.536;2023-02-15T10:14:29;2.50;99.90
29687;DHT22;16599;47.078;15.536;2023-02-15T10:19:34;2.60;99.90
29687;DHT22;16599;47.078;15.536;2023-02-15T10:22:11;2.70;99.90
29687;DHT22;16599;47.078;15.536;2023-02-15T10:27:45;2.60;99.90
29687;DHT22;16599;47.078;15.536;2023-02-15T10:30:22;2.50;99.90
29687;DHT22;16599;47.078;15.536;2023-02-15T10:32:53;2.60;99.90
29687;DHT22;16599;47.078;15.536;2023-02-15T10:38:09;2.80;99.90
29687;DHT22;16599;47.078;15.536;2023-02-15T10:40:54;2.80;99.90
29687;DHT22;16599;47.078;15.536;2023-02-15T10:43:37;2.90;99.90
29687;DHT22;16599;47.078;15.536;2023-02-15T10:51:05;3.20;99.90
29687;DHT22;16599;47.078;15.536;2023-02-15T11:01:18;2.90;99.90
29687;DHT22;16599;47.078;15.536;2023-02-15T11:06:18;3.00;99.90
29687;DHT22;16599;47.078;15.536;2023-02-15T11:08:46;3.10;99.90
29687;DHT22;16599;47.078;15.536;2023-02-15T11:11:21;3.30;99.90
29687;DHT22;16599;47.078;15.536;2023-02-15T11:13:50;3.40;99.90
29687;DHT22;16599;47.078;15.536;2023-02-15T11:16:19;3.40;99.90
29687;DHT22;16599;47.078;15.536;2023-02-15T11:19:00;3.50;99.90
29687;DHT22;16599;47.078;15.536;2023-02-15T11:21:33;3.50;99.90
29687;DHT22;16599;47.078;15.536;2023-02-15T11:24:09;3.70;99.90
29687;DHT22;16599;47.078;15.536;2023-02-15T11:26:39;3.70;99.90
29687;DHT22;16599;47.078;15.536;2023-02-15T11:29:18;3.70;99.90
29687;DHT22;16599;47.078;15.536;2023-02-15T11:31:51;3.70;99.90
29687;DHT22;16599;47.078;15.536;2023-02-15T11:34:33;3.30;99.90
29687;DHT22;16599;47.078;15.536;2023-02-15T11:37:01;3.20;99.90
29687;DHT22;16599;47.078;15.536;2023-02-15T11:39:31;3.40;99.90
29687;DHT22;16599;47.078;15.536;2023-02-15T11:41:59;3.60;99.90
29687;DHT22;16599;47.078;15.536;2023-02-15T11:44:29;4.00;99.90
29687;DHT22;16599;47.078;15.536;2023-02-15T11:46:59;4.30;99.90
29687;DHT22;16599;47.078;15.536;2023-02-15T11:49:32;4.50;99.90
29687;DHT22;16599;47.078;15.536;2023-02-15T11:52:05;4.40;99.90
29687;DHT22;16599;47.078;15.536;2023-02-15T11:54:33;3.80;99.90
29687;DHT22;16599;47.078;15.536;2023-02-15T11:59:37;4.60;99.90
29687;DHT22;16599;47.078;15.536;2023-02-15T12:02:20;4.30;99.90
29687;DHT22;16599;47.078;15.536;2023-02-15T12:04:58;4.60;99.90
29687;DHT22;16599;47.078;15.536;2023-02-15T12:07:27;5.00;99.90
29687;DHT22;16599;47.078;15.536;2023-02-15T12:10:04;5.30;99.90
29687;DHT22;16599;47.078;15.536;2023-02-15T12:12:38;5.40;99.90
29687;DHT22;16599;47.078;15.536;2023-02-15T12:15:05;5.10;99.90
29687;DHT22;16599;47.078;15.536;2023-02-15T12:17:40;5.20;99.90
29687;DHT22;16599;47.078;15.536;2023-02-15T12:20:20;5.20;99.90
29687;DHT22;16599;47.078;15.536;2023-02-15T12:22:51;5.20;99.90
29687;DHT22;16599;47.078;15.536;2023-02-15T12:25:21;5.30;99.90
29687;DHT22;16599;47.078;15.536;2023-02-15T12:27:48;5.60;99.90
29687;DHT22;16599;47.078;15.536;2023-02-15T12:30:28;5.50;99.90
29687;DHT22;16599;47.078;15.536;2023-02-15T12:32:58;5.00;99.90
29687;DHT22;16599;47.078;15.536;2023-02-15T12:35:30;5.30;99.90
29687;DHT22;16599;47.078;15.536;2023-02-15T12:38:02;5.30;99.90
29687;DHT22;16599;47.078;15.536;2023-02-15T12:40:30;5.40;99.90
29687;DHT22;16599;47.078;15.536;2023-02-15T12:42:57;5.80;99.90
29687;DHT22;16599;47.078;15.536;2023-02-15T12:45:31;6.00;99.90
29687;DHT22;16599;47.078;15.536;2023-02-15T12:48:14;5.90;99.40
29687;DHT22;16599;47.078;15.536;2023-02-15T12:50:45;6.10;99.40
29687;DHT22;16599;47.078;15.536;2023-02-15T12:56:10;6.20;98.80
29687;DHT22;16599;47.078;15.536;2023-02-15T12:58:40;6.30;98.80
29687;DHT22;16599;47.078;15.536;2023-02-15T13:01:12;6.10;98.70
29687;DHT22;16599;47.078;15.536;2023-02-15T13:03:59;6.20;98.90
29687;DHT22;16599;47.078;15.536;2023-02-15T13:06:27;6.20;98.80
29687;DHT22;16599;47.078;15.536;2023-02-15T13:08:55;6.10;98.90
29687;DHT22;16599;47.078;15.536;2023-02-15T13:11:26;6.00;99.40
29687;DHT22;16599;47.078;15.536;2023-02-15T13:13:57;6.40;98.70
29687;DHT22;16599;47.078;15.536;2023-02-15T13:18:55;6.40;98.00
29687;DHT22;16599;47.078;15.536;2023-02-15T13:21:23;6.30;98.40
29687;DHT22;16599;47.078;15.536;2023-02-15T13:23:52;6.50;98.40
29687;DHT22;16599;47.078;15.536;2023-02-15T13:26:21;6.80;97.90
29687;DHT22;16599;47.078;15.536;2023-02-15T13:28:49;6.60;97.50
29687;DHT22;16599;47.078;15.536;2023-02-15T13:31:18;5.50;98.50
29687;DHT22;16599;47.078;15.536;2023-02-15T13:33:46;5.80;99.20
29687;DHT22;16599;47.078;15.536;2023-02-15T13:36:37;6.10;98.70
29687;DHT22;16599;47.078;15.536;2023-02-15T13:39:17;6.20;98.50
29687;DHT22;16599;47.078;15.536;2023-02-15T13:41:48;6.50;97.90
29687;DHT22;16599;47.078;15.536;2023-02-15T13:44:25;5.70;99.10
29687;DHT22;16599;47.078;15.536;2023-02-15T13:47:16;6.00;98.70
29687;DHT22;16599;47.078;15.536;2023-02-15T14:10:57;6.50;97.90
29687;DHT22;16599;47.078;15.536;2023-02-15T14:18:46;6.30;97.50
29687;DHT22;16599;47.078;15.536;2023-02-15T14:21:17;6.10;97.70
29687;DHT22;16599;47.078;15.536;2023-02-15T14:23:52;6.00;98.00
29687;DHT22;16599;47.078;15.536;2023-02-15T14:26:26;6.00;97.70
29687;DHT22;16599;47.078;15.536;2023-02-15T14:31:36;5.60;98.80
29687;DHT22;16599;47.078;15.536;2023-02-15T14:34:07;5.50;98.90
29687;DHT22;16599;47.078;15.536;2023-02-15T14:36:38;5.50;99.10
29687;DHT22;16599;47.078;15.536;2023-02-15T14:39:14;5.60;99.00
29687;DHT22;16599;47.078;15.536;2023-02-15T14:42:09;5.10;99.30
29687;DHT22;16599;47.078;15.536;2023-02-15T14:44:39;5.30;99.60
29687;DHT22;16599;47.078;15.536;2023-02-15T14:47:22;5.20;99.60
29687;DHT22;16599;47.078;15.536;2023-02-15T14:49:51;5.20;99.50
29687;DHT22;16599;47.078;15.536;2023-02-15T14:52:18;5.00;99.80
29687;DHT22;16599;47.078;15.536;2023-02-15T14:59:40;4.90;99.90
29687;DHT22;16599;47.078;15.536;2023-02-15T15:10:04;4.80;99.90
29687;DHT22;16599;47.078;15.536;2023-02-15T15:12:48;4.70;99.90
29687;DHT22;16599;47.078;15.536;2023-02-15T15:17:53;4.50;99.90
29687;DHT22;16599;47.078;15.536;2023-02-15T15:23:54;4.50;99.90
29687;DHT22;16599;47.078;15.536;2023-02-15T15:25:55;4.40;99.90
29687;DHT22;16599;47.078;15.536;2023-02-15T15:33:42;4.30;99.90
29687;DHT22;16599;47.078;15.536;2023-02-15T15:41:43;4.00;99.90
29687;DHT22;16599;47.078;15.536;2023-02-15T15:49:21;3.70;99.90
29687;DHT22;16599;47.078;15.536;2023-02-15T15:51:49;3.50;99.90
29687;DHT22;16599;47.078;15.536;2023-02-15T15:54:18;3.50;99.90
29687;DHT22;16599;47.078;15.536;2023-02-15T15:56:49;3.40;99.90
29687;DHT22;16599;47.078;15.536;2023-02-15T15:59:20;3.30;99.90
29687;DHT22;16599;47.078;15.536;2023-02-15T16:01:49;3.00;99.90
29687;DHT22;16599;47.078;15.536;2023-02-15T16:04:26;2.50;99.90
29687;DHT22;16599;47.078;15.536;2023-02-15T16:06:53;2.50;99.90
29687;DHT22;16599;47.078;15.536;2023-02-15T16:09:24;2.10;99.90
29687;DHT22;16599;47.078;15.536;2023-02-15T16:11:57;2.00;99.90
29687;DHT22;16599;47.078;15.536;2023-02-15T16:14:37;1.60;99.90
29687;DHT22;16599;47.078;15.536;2023-02-15T16:17:07;1.70;99.90
29687;DHT22;16599;47.078;15.536;2023-02-15T16:19:38;1.40;99.90
29687;DHT22;16599;47.078;15.536;2023-02-15T16:22:10;1.00;99.90
29687;DHT22;16599;47.078;15.536;2023-02-15T16:30:29;0.80;99.90
29687;DHT22;16599;47.078;15.536;2023-02-15T16:33:03;0.90;99.90
29687;DHT22;16599;47.078;15.536;2023-02-15T16:35:31;0.70;99.90
29687;DHT22;16599;47.078;15.536;2023-02-15T16:37:58;0.40;99.90
29687;DHT22;16599;47.078;15.536;2023-02-15T16:42:51;0.40;99.90
29687;DHT22;16599;47.078;15.536;2023-02-15T16:45:20;0.60;99.90
29687;DHT22;16599;47.078;15.536;2023-02-15T16:47:49;0.70;99.90
29687;DHT22;16599;47.078;15.536;2023-02-15T16:50:17;0.60;99.90
29687;DHT22;16599;47.078;15.536;2023-02-15T16:52:45;0.40;99.90
29687;DHT22;16599;47.078;15.536;2023-02-15T16:55:19;0.20;99.90
29687;DHT22;16599;47.078;15.536;2023-02-15T16:57:47;0.30;99.90
29687;DHT22;16599;47.078;15.536;2023-02-15T17:00:21;0.50;99.90
29687;DHT22;16599;47.078;15.536;2023-02-15T17:03:32;0.20;99.90
29687;DHT22;16599;47.078;15.536;2023-02-15T17:08:12;-0.20;99.90
29687;DHT22;16599;47.078;15.536;2023-02-15T17:10:40;0.00;99.90
29687;DHT22;16599;47.078;15.536;2023-02-15T17:13:12;-0.30;99.90
29687;DHT22;16599;47.078;15.536;2023-02-15T17:15:40;-0.30;99.90
29687;DHT22;16599;47.078;15.536;2023-02-15T17:18:18;-0.10;99.90
29687;DHT22;16599;47.078;15.536;2023-02-15T17:20:46;-0.10;99.90
29687;DHT22;16599;47.078;15.536;2023-02-15T17:23:32;-0.10;99.90
29687;DHT22;16599;47.078;15.536;2023-02-15T17:26:00;-0.30;99.90
29687;DHT22;16599;47.078;15.536;2023-02-15T17:28:29;-0.40;99.90
29687;DHT22;16599;47.078;15.536;2023-02-15T17:30:56;-0.10;99.90
29687;DHT22;16599;47.078;15.536;2023-02-15T17:36:03;-0.70;99.90
29687;DHT22;16599;47.078;15.536;2023-02-15T17:38:30;-0.60;99.90
29687;DHT22;16599;47.078;15.536;2023-02-15T17:40:57;-0.70;99.90
29687;DHT22;16599;47.078;15.536;2023-02-15T17:43:25;-0.60;99.90
29687;DHT22;16599;47.078;15.536;2023-02-15T17:45:51;-0.50;99.90
29687;DHT22;16599;47.078;15.536;2023-02-15T17:50:45;-0.70;99.90
29687;DHT22;16599;47.078;15.536;2023-02-15T17:53:12;-0.70;99.90
29687;DHT22;16599;47.078;15.536;2023-02-15T17:55:40;-0.90;99.90
29687;DHT22;16599;47.078;15.536;2023-02-15T17:58:10;-1.00;99.90
29687;DHT22;16599;47.078;15.536;2023-02-15T18:00:42;-0.90;99.90
29687;DHT22;16599;47.078;15.536;2023-02-15T18:03:34;-0.90;99.90
29687;DHT22;16599;47.078;15.536;2023-02-15T18:06:22;-0.80;99.90
29687;DHT22;16599;47.078;15.536;2023-02-15T18:09:11;-1.20;99.90
29687;DHT22;16599;47.078;15.536;2023-02-15T18:11:56;-1.30;99.90
29687;DHT22;16599;47.078;15.536;2023-02-15T18:14:23;-1.60;99.90
29687;DHT22;16599;47.078;15.536;2023-02-15T18:16:50;-1.50;99.90
29687;DHT22;16599;47.078;15.536;2023-02-15T18:19:17;-1.40;99.90
29687;DHT22;16599;47.078;15.536;2023-02-15T18:21:45;-1.30;99.90
29687;DHT22;16599;47.078;15.536;2023-02-15T18:24:16;-1.40;99.90
29687;DHT22;16599;47.078;15.536;2023-02-15T18:26:43;-1.40;99.90
29687;DHT22;16599;47.078;15.536;2023-02-15T18:29:10;-1.60;99.90
29687;DHT22;16599;47.078;15.536;2023-02-15T18:31:37;-1.40;99.90
29687;DHT22;16599;47.078;15.536;2023-02-15T18:34:04;-1.50;99.90
29687;DHT22;16599;47.078;15.536;2023-02-15T18:36:32;-1.40;99.90